createdAt,value
2022-10-29T00:01:40.817Z,101129.19
2022-10-29T00:11:57.450Z,101130.19
2022-10-29T00:17:03.601Z,101140.72
2022-10-29T00:22:11.073Z,101138.16
2022-10-29T00:27:18.210Z,101125.09
2022-10-29T00:32:24.276Z,101132.13
2022-10-29T00:37:32.613Z,101123.50
2022-10-29T00:42:39.017Z,101115.66
2022-10-29T00:47:45.586Z,101108.75
2022-10-29T00:52:54.985Z,101114.00
2022-10-29T00:58:01.179Z,101115.75
2022-10-29T01:03:07.700Z,101119.25
2022-10-29T01:08:16.553Z,101120.13
2022-10-29T01:13:36.729Z,101124.50
2022-10-29T01:18:54.675Z,101127.41
2022-10-29T01:24:58.547Z,101126.56
2022-10-29T01:30:17.331Z,101123.94
2022-10-29T01:35:33.431Z,101124.84
2022-10-29T01:40:48.389Z,101117.06
2022-10-29T01:46:01.548Z,101107.63
2022-10-29T01:51:20.513Z,101107.63
2022-10-29T01:56:26.503Z,101103.34
2022-10-29T02:01:51.234Z,101101.66
2022-10-29T02:07:06.834Z,101088.94
2022-10-29T02:12:22.360Z,101075.97
2022-10-29T02:17:48.506Z,101066.59
2022-10-29T02:22:56.575Z,101065.75
2022-10-29T02:28:02.571Z,101070.06
2022-10-29T02:33:08.501Z,101063.13
2022-10-29T02:38:15.883Z,101058.94
2022-10-29T02:43:21.840Z,101049.44
2022-10-29T02:48:27.716Z,101043.28
2022-10-29T02:53:35.751Z,101044.22
2022-10-29T02:58:41.750Z,101039.16
2022-10-29T03:03:47.655Z,101023.56
2022-10-29T03:08:55.030Z,101027.94
2022-10-29T03:14:01.133Z,101026.19
2022-10-29T03:19:07.364Z,101023.53
2022-10-29T03:24:14.763Z,101029.59
2022-10-29T03:29:20.592Z,101026.13
2022-10-29T03:34:26.607Z,101019.25
2022-10-29T03:39:34.057Z,101039.22
2022-10-29T03:44:39.931Z,101045.41
2022-10-29T03:49:45.834Z,101048.09
2022-10-29T03:54:52.842Z,101041.94
2022-10-29T03:59:58.842Z,101032.38
2022-10-29T04:05:04.907Z,101023.66
2022-10-29T04:10:12.945Z,101022.78
2022-10-29T04:15:18.982Z,101021.97
2022-10-29T04:20:45.349Z,101013.47
2022-10-29T04:27:49.290Z,101015.09
2022-10-29T04:31:25.866Z,101011.59
2022-10-29T04:36:32.226Z,101018.53
2022-10-29T04:41:39.440Z,101015.97
2022-10-29T04:46:45.685Z,101003.06
2022-10-29T04:51:51.667Z,101013.41
2022-10-29T04:56:59.336Z,101037.88
2022-10-29T05:02:05.410Z,101026.69
2022-10-29T05:07:11.740Z,101031.03
2022-10-29T05:12:19.209Z,101044.91
2022-10-29T05:17:25.719Z,101038.81
2022-10-29T05:22:31.745Z,101048.34
2022-10-29T05:27:39.530Z,101037.88
2022-10-29T05:32:45.539Z,101038.72
2022-10-29T05:37:53.981Z,101040.44
2022-10-29T05:43:02.101Z,101026.47
2022-10-29T05:48:08.964Z,101020.31
2022-10-29T05:53:16.555Z,101019.44
2022-10-29T05:58:24.083Z,101008.94
2022-10-29T06:03:30.149Z,101000.19
2022-10-29T06:08:36.128Z,101010.56
2022-10-29T06:13:43.724Z,101008.75
2022-10-29T06:18:51.069Z,101014.84
2022-10-29T06:23:57.141Z,101033.06
2022-10-29T06:29:04.759Z,101039.09
2022-10-29T06:34:11.038Z,101044.28
2022-10-29T06:39:18.089Z,101045.13
2022-10-29T06:44:25.605Z,101043.28
2022-10-29T06:49:31.616Z,101054.53
2022-10-29T06:54:37.608Z,101053.53
2022-10-29T06:59:45.071Z,101050.78
2022-10-29T07:04:51.172Z,101067.22
2022-10-29T07:09:58.444Z,101058.28
2022-10-29T07:15:07.216Z,101054.59
2022-10-29T07:20:13.704Z,101050.22
2022-10-29T07:25:20.049Z,101049.91
2022-10-29T07:30:27.442Z,101049.59
2022-10-29T07:35:34.800Z,101038.09
2022-10-29T07:40:47.917Z,101051.00
2022-10-29T07:45:55.282Z,101032.63
2022-10-29T07:51:01.818Z,101025.47
2022-10-29T07:56:08.661Z,101035.81
2022-10-29T08:01:16.342Z,101041.75
2022-10-29T08:06:22.365Z,101063.31
2022-10-29T08:11:29.580Z,101060.53
2022-10-29T08:16:38.941Z,101055.16
2022-10-29T08:21:45.335Z,101040.25
2022-10-29T08:26:52.615Z,101040.06
2022-10-29T08:32:00.180Z,101058.97
2022-10-29T08:37:08.420Z,101056.97
2022-10-29T08:42:39.246Z,101046.22
2022-10-29T08:48:08.923Z,101062.56
2022-10-29T08:53:25.157Z,101064.13
2022-10-29T08:58:40.405Z,101069.34
2022-10-29T09:03:48.040Z,101077.75
2022-10-29T09:09:11.897Z,101073.06
2022-10-29T09:15:12.014Z,101070.22
2022-10-29T09:20:31.951Z,101075.38
2022-10-29T09:25:56.581Z,101068.22
2022-10-29T09:31:12.768Z,101088.94
2022-10-29T09:36:27.827Z,101094.94
2022-10-29T09:41:36.331Z,101102.63
2022-10-29T09:46:57.497Z,101104.38
2022-10-29T09:52:11.916Z,101100.00
2022-10-29T09:57:24.782Z,101085.09
2022-10-29T10:02:40.109Z,101073.44
2022-10-29T10:08:09.070Z,101083.59
2022-10-29T10:13:17.692Z,101097.34
2022-10-29T10:18:28.446Z,101081.59
2022-10-29T10:23:47.828Z,101092.81
2022-10-29T10:29:13.285Z,101093.56
2022-10-29T10:34:25.039Z,101087.97
2022-10-29T10:39:43.813Z,101094.66
2022-10-29T10:45:29.126Z,101096.25
2022-10-29T10:58:07.593Z,101094.09
2022-10-29T11:09:10.878Z,101099.75
2022-10-29T11:14:28.258Z,101085.59
2022-10-29T11:26:40.682Z,101092.41
2022-10-29T11:32:09.412Z,101103.91
2022-10-29T11:37:30.431Z,101114.44
2022-10-29T11:42:39.556Z,101103.88
2022-10-29T11:48:21.671Z,101089.91
2022-10-29T11:54:33.860Z,101093.16
2022-10-29T12:00:16.111Z,101083.31
2022-10-29T12:05:53.411Z,101086.47
2022-10-29T12:23:55.909Z,101087.31
2022-10-29T12:36:42.798Z,101109.88
2022-10-29T12:41:54.859Z,101105.34
2022-10-29T12:47:22.172Z,101104.56
2022-10-29T12:52:47.583Z,101100.34
2022-10-29T13:05:45.451Z,101094.06
2022-10-29T13:11:54.744Z,101102.09
2022-10-29T13:17:52.016Z,101089.00
2022-10-29T13:24:20.099Z,101095.19
2022-10-29T13:53:09.196Z,101101.81
2022-10-29T14:21:45.521Z,101097.97
2022-10-29T14:35:09.019Z,101111.38
2022-10-29T14:41:06.796Z,101112.31
2022-10-29T15:49:01.721Z,101124.47
2022-10-29T15:54:14.246Z,101133.28
2022-10-29T15:59:26.779Z,101135.16
2022-10-29T16:04:37.821Z,101122.94
2022-10-29T16:09:49.739Z,101127.31
2022-10-29T16:14:55.698Z,101127.41
2022-10-29T16:20:05.034Z,101126.69
2022-10-29T16:25:26.469Z,101124.13
2022-10-29T16:30:33.354Z,101134.69
2022-10-29T16:35:41.622Z,101127.78
2022-10-29T16:40:48.397Z,101130.53
2022-10-29T16:45:58.567Z,101117.47
2022-10-29T16:51:10.082Z,101114.94
2022-10-29T16:56:17.549Z,101135.06
2022-10-29T17:01:24.947Z,101148.31
2022-10-29T17:06:33.377Z,101145.81
2022-10-29T17:11:39.526Z,101154.59
2022-10-29T17:16:46.732Z,101140.66
2022-10-29T17:21:55.018Z,101139.81
2022-10-29T17:27:03.364Z,101139.13
2022-10-29T17:32:10.844Z,101138.25
2022-10-29T17:37:18.407Z,101136.59
2022-10-29T17:42:24.446Z,101141.88
2022-10-29T17:47:31.869Z,101141.03
2022-10-29T17:52:40.588Z,101137.59
2022-10-29T17:57:46.890Z,101147.25
2022-10-29T18:02:54.539Z,101154.34
2022-10-29T18:08:10.782Z,101153.56
2022-10-29T18:13:19.071Z,101161.53
2022-10-29T18:18:26.236Z,101166.91
2022-10-29T18:23:42.114Z,101161.78
2022-10-29T18:28:49.162Z,101164.44
2022-10-29T18:33:59.466Z,101168.03
2022-10-29T18:39:10.983Z,101175.09
2022-10-29T18:44:18.087Z,101179.59
2022-10-29T18:49:24.597Z,101179.66
2022-10-29T18:54:32.875Z,101183.16
2022-10-29T18:59:41.660Z,101192.84
2022-10-29T19:04:48.732Z,101198.22
2022-10-29T19:09:57.964Z,101199.16
2022-10-29T19:15:15.678Z,101207.13
2022-10-29T19:20:23.237Z,101206.41
2022-10-29T19:25:35.087Z,101201.19
2022-10-29T19:30:45.631Z,101202.13
2022-10-29T19:35:53.155Z,101199.59
2022-10-29T19:41:03.625Z,101187.53
2022-10-29T19:46:12.892Z,101199.81
2022-10-29T19:51:21.163Z,101202.47
2022-10-29T19:56:31.404Z,101192.19
2022-10-29T20:01:39.819Z,101191.06
2022-10-29T20:06:48.934Z,101198.06
2022-10-29T20:12:03.875Z,101192.44
2022-10-29T20:17:18.603Z,101197.44
2022-10-29T20:22:37.764Z,101203.47
2022-10-29T20:27:46.861Z,101200.31
2022-10-29T20:32:57.312Z,101204.50
2022-10-29T20:38:14.151Z,101201.88
2022-10-29T20:43:24.418Z,101194.88
2022-10-29T20:48:34.033Z,101195.84
2022-10-29T20:53:43.011Z,101198.47
2022-10-29T20:58:53.213Z,101212.53
2022-10-29T21:04:11.447Z,101191.63
2022-10-29T21:09:25.179Z,101189.06
2022-10-29T21:14:34.393Z,101191.84
2022-10-29T21:19:40.749Z,101184.13
2022-10-29T21:24:46.965Z,101173.72
2022-10-29T21:29:54.424Z,101177.19
2022-10-29T21:35:00.511Z,101178.31
2022-10-29T21:40:08.038Z,101178.53
2022-10-29T21:45:16.008Z,101183.06
2022-10-29T21:50:22.576Z,101181.03
2022-10-29T21:55:29.394Z,101186.16
2022-10-29T22:00:37.054Z,101196.88
2022-10-29T22:05:45.750Z,101176.09
2022-10-29T22:10:51.778Z,101163.75
2022-10-29T22:15:59.180Z,101152.59
2022-10-29T22:21:09.067Z,101151.75
2022-10-29T22:26:17.354Z,101151.59
2022-10-29T22:31:26.747Z,101149.03
2022-10-29T22:36:34.465Z,101155.91
2022-10-29T22:41:41.604Z,101158.72
2022-10-29T22:46:59.636Z,101169.09
2022-10-29T22:52:06.439Z,101156.91
2022-10-29T22:57:13.378Z,101169.34
2022-10-29T23:02:22.001Z,101179.59
2022-10-29T23:07:28.206Z,101179.59
2022-10-29T23:12:34.545Z,101177.00
2022-10-29T23:18:07.387Z,101187.38
2022-10-29T23:23:14.678Z,101164.66
2022-10-29T23:28:22.131Z,101172.44
2022-10-29T23:33:30.901Z,101150.69
2022-10-29T23:38:37.273Z,101157.03
2022-10-29T23:43:43.311Z,101159.50
2022-10-29T23:48:52.012Z,101167.44
2022-10-29T23:53:58.457Z,101172.03
2022-10-29T23:59:06.718Z,101152.00
